Etusivu
METAR-TAF:

METAR-TAF

Lentoasemat :

Wilbarger County Airport

Vernon, Texas, Yhdysvallat

Leveyspiiri: 34-13-32N, Pituuspiiri: 099-17-01W, korkeus merenpinnasta: 386 m

Tämänhetkinen sää

Tämä raportti tehtiin 16 minuuttia sitten, kello 03.15 UTC
Tuuli 5 kn idästä/koillisesta
Lämpötila 26°C
Kosteus 70%
Ilmanpaine 1007 hPa
Näkyvyys: 16.1 km
selkeää

METAR: KF05 200315Z AUTO 06005KT 10SM CLR 26/20 A2975 RMK AO1 T02630195

Aika: 22:31 (03:31 UTC)


TAF: puuttuu

Säähavainnot ja -ennusteet yli 4000 lentoasemalta (METAR- ja TAF-raportit).

Käytössä olevat sääasemat on merkitty karttaan keltaisilla ja punaisilla pisteillä.

Aseta hiiri pisteen päälle nähdäksesi sääaseman nimen.

Klikkaa sitten nähdäksesi säähavainnot ja -ennusteet.

Kartan vaihtaminen: klikkaa mustalla rastilla varustettuja vihreitä pisteitä, niin voit zoomata sisään; viivalla varustettua vihreää pistettä, niin voit zoomata ulos tai vihreitä nuolia, niin pääset viereisille kartoille.


METAR-TAF: